createdAt,value
2022-12-19T00:04:20.358Z,74.61
2022-12-19T00:09:23.120Z,74.02
2022-12-19T00:14:25.912Z,73.94
2022-12-19T00:19:28.687Z,74.02
2022-12-19T00:24:31.325Z,73.72
2022-12-19T00:29:34.187Z,74.02
2022-12-19T00:34:38.439Z,73.71
2022-12-19T00:39:41.070Z,73.93
2022-12-19T00:44:43.701Z,73.86
2022-12-19T00:49:46.362Z,73.48
2022-12-19T00:54:50.893Z,73.76
2022-12-19T00:59:55.246Z,73.48
2022-12-19T01:04:58.008Z,73.30
2022-12-19T01:10:00.833Z,73.57
2022-12-19T01:15:06.109Z,73.40
2022-12-19T01:20:11.353Z,73.48
2022-12-19T01:25:14.692Z,73.42
2022-12-19T01:30:17.491Z,73.36
2022-12-19T01:35:22.549Z,73.50
2022-12-19T01:40:25.189Z,73.15
2022-12-19T01:45:34.896Z,73.35
2022-12-19T01:51:02.778Z,73.58
2022-12-19T01:56:10.493Z,73.82
2022-12-19T02:01:14.858Z,73.59
2022-12-19T02:06:17.921Z,73.46
2022-12-19T02:11:20.644Z,73.70
2022-12-19T02:16:47.591Z,73.29
2022-12-19T02:21:57.864Z,73.43
2022-12-19T02:27:24.655Z,73.75
2022-12-19T02:32:36.245Z,73.47
2022-12-19T02:38:15.805Z,73.48
2022-12-19T02:43:19.380Z,73.52
2022-12-19T02:48:22.803Z,73.35
2022-12-19T02:53:25.444Z,73.15
2022-12-19T02:58:59.370Z,72.63
2022-12-19T03:04:17.890Z,72.44
2022-12-19T03:09:38.752Z,73.16
2022-12-19T03:14:41.910Z,73.54
2022-12-19T03:19:46.265Z,73.33
2022-12-19T03:24:48.937Z,73.25
2022-12-19T03:30:01.126Z,73.52
2022-12-19T03:35:13.934Z,73.47
2022-12-19T03:40:19.997Z,73.40
2022-12-19T03:45:30.073Z,73.39
2022-12-19T03:50:46.187Z,73.01
2022-12-19T03:55:56.156Z,73.25
2022-12-19T04:00:58.946Z,73.22
2022-12-19T04:06:02.583Z,72.83
2022-12-19T04:11:14.506Z,73.22
2022-12-19T04:16:56.807Z,73.11
2022-12-19T04:22:05.173Z,72.95
2022-12-19T04:27:08.848Z,73.04
2022-12-19T04:32:12.071Z,73.45
2022-12-19T04:37:14.780Z,73.06
2022-12-19T04:42:17.594Z,72.85
2022-12-19T04:47:20.490Z,72.64
2022-12-19T04:52:23.152Z,72.39
2022-12-19T04:57:30.620Z,72.36
2022-12-19T05:02:33.471Z,72.05
2022-12-19T05:07:36.535Z,71.90
2022-12-19T05:12:39.202Z,71.91
2022-12-19T05:17:41.900Z,71.79
2022-12-19T05:22:44.639Z,71.50
2022-12-19T05:27:47.242Z,71.35
2022-12-19T05:32:50.029Z,71.05
2022-12-19T05:37:52.719Z,71.06
2022-12-19T05:42:55.714Z,70.66
2022-12-19T05:48:01.290Z,70.52
2022-12-19T05:53:04.488Z,70.46
2022-12-19T05:58:07.116Z,70.38
2022-12-19T06:03:09.999Z,70.10
2022-12-19T06:08:12.816Z,70.18
2022-12-19T06:13:16.488Z,70.54
2022-12-19T06:18:20.328Z,70.51
2022-12-19T06:23:23.451Z,70.39
2022-12-19T06:28:27.798Z,70.25
2022-12-19T06:33:31.473Z,70.41
2022-12-19T06:38:35.054Z,70.25
2022-12-19T06:43:37.845Z,70.33
2022-12-19T06:48:40.485Z,70.50
2022-12-19T06:53:43.163Z,70.18
2022-12-19T06:58:45.966Z,70.14
2022-12-19T07:03:49.315Z,69.96
2022-12-19T07:08:52.031Z,69.89
2022-12-19T07:13:54.722Z,69.80
2022-12-19T07:18:57.765Z,69.88
2022-12-19T07:24:00.866Z,70.20
2022-12-19T07:29:03.734Z,70.31
2022-12-19T07:34:06.375Z,70.59
2022-12-19T07:39:09.109Z,70.53
2022-12-19T07:44:13.734Z,70.33
2022-12-19T07:49:21.078Z,70.33
2022-12-19T07:54:25.496Z,70.17
2022-12-19T07:59:32.311Z,70.42
2022-12-19T08:04:38.393Z,70.33
2022-12-19T08:09:44.093Z,70.42
2022-12-19T08:14:46.771Z,70.43
2022-12-19T08:19:49.476Z,70.28
2022-12-19T08:24:52.223Z,70.54
2022-12-19T08:29:54.878Z,70.74
2022-12-19T08:34:57.626Z,71.23
2022-12-19T08:40:00.225Z,70.80
2022-12-19T08:45:02.947Z,70.98
2022-12-19T08:50:07.335Z,70.76
2022-12-19T08:55:10.632Z,70.88
2022-12-19T09:00:13.868Z,70.88
2022-12-19T09:06:02.453Z,71.23
2022-12-19T09:10:41.512Z,71.56
2022-12-19T09:15:44.288Z,71.27
2022-12-19T09:20:47.022Z,71.47
2022-12-19T09:25:50.336Z,71.63
2022-12-19T09:30:57.792Z,71.85
2022-12-19T09:36:00.897Z,71.92
2022-12-19T09:41:15.865Z,71.96
2022-12-19T09:46:31.784Z,72.34
2022-12-19T09:51:53.169Z,72.44
2022-12-19T09:56:59.537Z,72.63
2022-12-19T10:02:17.433Z,72.72
2022-12-19T10:07:48.328Z,72.75
2022-12-19T10:13:04.970Z,72.96
2022-12-19T10:18:19.535Z,73.07
2022-12-19T10:23:40.270Z,72.93
2022-12-19T10:29:05.535Z,73.26
2022-12-19T10:34:21.834Z,73.37
2022-12-19T10:40:03.524Z,73.53
2022-12-19T10:45:15.406Z,73.31
2022-12-19T10:50:22.790Z,73.39
2022-12-19T10:55:35.346Z,73.93
2022-12-19T11:00:39.538Z,73.90
2022-12-19T11:05:47.549Z,74.16
2022-12-19T11:12:52.221Z,74.34
2022-12-19T11:20:44.604Z,74.35
2022-12-19T11:29:31.089Z,74.58
2022-12-19T11:30:35.806Z,74.53
2022-12-19T11:33:15.361Z,74.24
2022-12-19T11:38:48.959Z,74.58
2022-12-19T11:43:59.443Z,74.68
2022-12-19T11:49:20.773Z,74.73
2022-12-19T11:54:36.230Z,75.22
2022-12-19T11:59:39.789Z,75.22
2022-12-19T12:05:03.918Z,75.08
2022-12-19T12:15:37.939Z,75.28
2022-12-19T12:31:02.480Z,75.82
2022-12-19T12:31:13.059Z,75.35
2022-12-19T12:31:45.833Z,75.66
2022-12-19T12:35:30.673Z,75.83
2022-12-19T12:38:25.558Z,75.76
2022-12-19T12:43:56.957Z,75.66
2022-12-19T12:49:05.848Z,75.86
2022-12-19T12:54:12.904Z,76.15
2022-12-19T12:59:21.735Z,76.19
2022-12-19T13:05:00.951Z,75.95
2022-12-19T13:10:25.801Z,75.99
2022-12-19T13:15:28.545Z,76.08
2022-12-19T13:20:31.211Z,76.17
2022-12-19T13:25:37.091Z,76.16
2022-12-19T13:31:18.950Z,76.43
2022-12-19T13:39:51.267Z,76.53
2022-12-19T13:42:36.019Z,76.15
2022-12-19T13:47:41.797Z,76.10
2022-12-19T13:52:49.738Z,76.27
2022-12-19T13:57:55.869Z,76.43
2022-12-19T14:03:00.009Z,76.71
2022-12-19T14:08:04.452Z,76.58
2022-12-19T14:13:46.843Z,76.28
2022-12-19T14:18:50.769Z,76.09
2022-12-19T14:24:20.580Z,75.81
2022-12-19T14:30:26.105Z,76.08
2022-12-19T14:36:10.400Z,75.83
2022-12-19T14:40:32.463Z,76.14
2022-12-19T14:53:52.383Z,76.56
2022-12-19T14:54:32.218Z,76.34
2022-12-19T14:57:06.787Z,76.07
2022-12-19T15:02:12.166Z,76.21
2022-12-19T15:07:34.276Z,76.38
2022-12-19T15:14:52.404Z,76.54
2022-12-19T15:18:42.841Z,76.54
2022-12-19T15:23:46.184Z,76.55
2022-12-19T15:28:53.841Z,76.27
2022-12-19T15:39:20.350Z,76.27
2022-12-19T15:44:40.811Z,76.22
2022-12-19T15:49:43.571Z,76.21
2022-12-19T15:54:49.381Z,76.07
2022-12-19T15:59:52.831Z,75.95
2022-12-19T16:05:01.686Z,75.96
2022-12-19T16:10:07.589Z,75.78
2022-12-19T16:15:24.699Z,76.04
2022-12-19T16:20:31.882Z,75.96
2022-12-19T16:25:46.501Z,76.00
2022-12-19T16:30:50.731Z,75.48
2022-12-19T16:36:08.588Z,75.85
2022-12-19T16:41:23.532Z,75.50
2022-12-19T16:46:31.275Z,75.92
2022-12-19T16:51:34.026Z,76.03
2022-12-19T16:56:50.897Z,76.33
2022-12-19T17:01:54.275Z,75.74
2022-12-19T17:06:57.118Z,76.07
2022-12-19T17:12:01.502Z,76.37
2022-12-19T17:17:04.176Z,76.37
2022-12-19T17:22:13.057Z,75.79
2022-12-19T17:27:17.735Z,76.28
2022-12-19T17:32:24.340Z,76.06
2022-12-19T17:37:27.493Z,75.65
2022-12-19T17:42:36.888Z,75.57
2022-12-19T17:47:40.186Z,75.03
2022-12-19T17:52:42.871Z,75.46
2022-12-19T17:57:45.739Z,75.20
2022-12-19T18:02:49.534Z,75.42
2022-12-19T18:07:52.781Z,75.42
2022-12-19T18:12:55.598Z,75.44
2022-12-19T18:17:58.388Z,75.65
2022-12-19T18:23:01.991Z,75.56
2022-12-19T18:28:04.734Z,75.69
2022-12-19T18:33:08.375Z,75.21
2022-12-19T18:38:21.899Z,75.50
2022-12-19T18:43:24.538Z,75.13
2022-12-19T18:48:29.082Z,75.20
2022-12-19T18:53:35.526Z,75.32
2022-12-19T18:58:39.036Z,75.21
2022-12-19T19:03:42.628Z,75.54
2022-12-19T19:08:45.361Z,75.56
2022-12-19T19:14:11.769Z,75.39
2022-12-19T19:19:17.896Z,75.40
2022-12-19T19:24:22.206Z,75.51
2022-12-19T19:29:24.932Z,75.31
2022-12-19T19:34:33.034Z,75.86
2022-12-19T19:39:35.844Z,75.55
2022-12-19T19:44:38.620Z,75.71
2022-12-19T19:49:41.674Z,75.72
2022-12-19T19:54:44.427Z,75.38
2022-12-19T19:59:47.267Z,75.80
2022-12-19T20:04:49.940Z,75.49
2022-12-19T20:09:52.678Z,75.62
2022-12-19T20:14:55.372Z,75.79
2022-12-19T20:19:58.003Z,75.75
2022-12-19T20:25:00.674Z,75.91
2022-12-19T20:30:04.694Z,76.00
2022-12-19T20:35:14.025Z,76.05
2022-12-19T20:40:17.418Z,75.56
2022-12-19T20:45:20.049Z,76.03
2022-12-19T20:50:23.047Z,75.40
2022-12-19T20:55:25.726Z,75.25
2022-12-19T21:00:28.391Z,75.30
2022-12-19T21:05:31.064Z,75.05
2022-12-19T21:10:33.905Z,75.22
2022-12-19T21:15:36.574Z,74.72
2022-12-19T21:20:39.406Z,74.63
2022-12-19T21:25:42.351Z,74.67
2022-12-19T21:30:45.030Z,74.73
2022-12-19T21:35:47.840Z,75.30
2022-12-19T21:40:50.789Z,75.09
2022-12-19T21:46:04.475Z,74.86
2022-12-19T21:51:07.518Z,74.62
2022-12-19T21:56:24.495Z,74.41
2022-12-19T22:01:28.176Z,74.56
2022-12-19T22:06:33.395Z,74.38
2022-12-19T22:11:36.806Z,74.67
2022-12-19T22:16:39.758Z,74.49
2022-12-19T22:21:42.755Z,74.58
2022-12-19T22:26:45.473Z,74.25
2022-12-19T22:31:48.438Z,74.46
2022-12-19T22:36:51.171Z,74.10
2022-12-19T22:41:53.857Z,74.22
2022-12-19T22:46:56.526Z,74.19
2022-12-19T22:51:59.451Z,74.36
2022-12-19T22:57:02.121Z,74.42
2022-12-19T23:02:05.065Z,74.59
2022-12-19T23:07:07.834Z,74.40
2022-12-19T23:12:10.573Z,74.05
2022-12-19T23:17:13.200Z,74.27
2022-12-19T23:22:15.881Z,73.95
2022-12-19T23:27:18.611Z,74.02
2022-12-19T23:32:21.497Z,74.21
2022-12-19T23:37:24.262Z,74.23
2022-12-19T23:42:26.961Z,74.44
2022-12-19T23:47:32.698Z,73.94
2022-12-19T23:52:35.438Z,74.38
2022-12-19T23:57:38.447Z,73.99
